sensor_id;sensor_type;location;lat;lon;timestamp;temperature;humidity
8888;DHT22;4480;52.370;9.748;2023-12-04T00:00:58;-0.40;99.90
8888;DHT22;4480;52.370;9.748;2023-12-04T00:03:25;-0.50;99.90
8888;DHT22;4480;52.370;9.748;2023-12-04T00:05:51;-0.50;99.90
8888;DHT22;4480;52.370;9.748;2023-12-04T00:08:18;-0.50;99.90
8888;DHT22;4480;52.370;9.748;2023-12-04T00:10:45;-0.40;99.90
8888;DHT22;4480;52.370;9.748;2023-12-04T00:13:13;-0.40;99.90
8888;DHT22;4480;52.370;9.748;2023-12-04T00:15:40;-0.40;99.90
8888;DHT22;4480;52.370;9.748;2023-12-04T00:18:07;-0.40;99.90
8888;DHT22;4480;52.370;9.748;2023-12-04T00:20:33;-0.40;99.90
8888;DHT22;4480;52.370;9.748;2023-12-04T00:23:01;-0.40;99.90
8888;DHT22;4480;52.370;9.748;2023-12-04T00:25:27;-0.40;99.90
8888;DHT22;4480;52.370;9.748;2023-12-04T00:27:54;-0.40;99.90
8888;DHT22;4480;52.370;9.748;2023-12-04T00:30:22;-0.30;99.90
8888;DHT22;4480;52.370;9.748;2023-12-04T00:32:49;-0.30;99.90
8888;DHT22;4480;52.370;9.748;2023-12-04T00:35:16;-0.30;99.90
8888;DHT22;4480;52.370;9.748;2023-12-04T00:37:43;-0.30;99.90
8888;DHT22;4480;52.370;9.748;2023-12-04T00:40:10;-0.30;99.90
8888;DHT22;4480;52.370;9.748;2023-12-04T00:42:37;-0.40;99.90
8888;DHT22;4480;52.370;9.748;2023-12-04T00:45:04;-0.30;99.90
8888;DHT22;4480;52.370;9.748;2023-12-04T00:47:33;-0.40;99.90
8888;DHT22;4480;52.370;9.748;2023-12-04T00:49:59;-0.30;99.90
8888;DHT22;4480;52.370;9.748;2023-12-04T00:52:26;-0.30;99.90
8888;DHT22;4480;52.370;9.748;2023-12-04T00:54:53;-0.30;99.90
8888;DHT22;4480;52.370;9.748;2023-12-04T00:57:20;-0.30;99.90
8888;DHT22;4480;52.370;9.748;2023-12-04T00:59:46;-0.30;99.90
8888;DHT22;4480;52.370;9.748;2023-12-04T01:02:13;-0.30;99.90
8888;DHT22;4480;52.370;9.748;2023-12-04T01:04:41;-0.30;99.90
8888;DHT22;4480;52.370;9.748;2023-12-04T01:07:08;-0.30;99.90
8888;DHT22;4480;52.370;9.748;2023-12-04T01:09:35;-0.30;99.90
8888;DHT22;4480;52.370;9.748;2023-12-04T01:12:03;-0.30;99.90
8888;DHT22;4480;52.370;9.748;2023-12-04T01:14:30;-0.40;99.90
8888;DHT22;4480;52.370;9.748;2023-12-04T01:16:57;-0.40;99.90
8888;DHT22;4480;52.370;9.748;2023-12-04T01:19:23;-0.40;99.90
8888;DHT22;4480;52.370;9.748;2023-12-04T01:21:51;-0.30;99.90
8888;DHT22;4480;52.370;9.748;2023-12-04T01:24:19;-0.30;99.90
8888;DHT22;4480;52.370;9.748;2023-12-04T01:26:45;-0.30;99.90
8888;DHT22;4480;52.370;9.748;2023-12-04T01:29:12;-0.20;99.90
8888;DHT22;4480;52.370;9.748;2023-12-04T01:31:39;-0.20;99.90
8888;DHT22;4480;52.370;9.748;2023-12-04T01:34:06;-0.10;99.90
8888;DHT22;4480;52.370;9.748;2023-12-04T01:36:32;-0.10;99.90
8888;DHT22;4480;52.370;9.748;2023-12-04T01:39:01;-0.10;99.90
8888;DHT22;4480;52.370;9.748;2023-12-04T01:41:29;-0.20;99.90
8888;DHT22;4480;52.370;9.748;2023-12-04T01:43:55;-0.10;99.90
8888;DHT22;4480;52.370;9.748;2023-12-04T01:46:22;-0.10;99.90
8888;DHT22;4480;52.370;9.748;2023-12-04T01:48:49;-0.10;99.90
8888;DHT22;4480;52.370;9.748;2023-12-04T01:51:17;-0.10;99.90
8888;DHT22;4480;52.370;9.748;2023-12-04T01:53:44;-0.10;99.90
8888;DHT22;4480;52.370;9.748;2023-12-04T01:56:13;-0.10;99.90
8888;DHT22;4480;52.370;9.748;2023-12-04T01:58:41;-0.10;99.90
8888;DHT22;4480;52.370;9.748;2023-12-04T02:01:09;-0.10;99.90
8888;DHT22;4480;52.370;9.748;2023-12-04T02:03:37;-0.10;99.90
8888;DHT22;4480;52.370;9.748;2023-12-04T02:06:05;-0.10;99.90
8888;DHT22;4480;52.370;9.748;2023-12-04T02:08:32;-0.10;99.90
8888;DHT22;4480;52.370;9.748;2023-12-04T02:10:59;-0.10;99.90
8888;DHT22;4480;52.370;9.748;2023-12-04T02:13:27;-0.20;99.90
8888;DHT22;4480;52.370;9.748;2023-12-04T02:15:55;-0.20;99.90
8888;DHT22;4480;52.370;9.748;2023-12-04T02:18:24;-0.20;99.90
8888;DHT22;4480;52.370;9.748;2023-12-04T02:20:52;-0.20;99.90
8888;DHT22;4480;52.370;9.748;2023-12-04T02:23:19;-0.20;99.90
8888;DHT22;4480;52.370;9.748;2023-12-04T02:25:47;-0.20;99.90
8888;DHT22;4480;52.370;9.748;2023-12-04T02:28:16;-0.20;99.90
8888;DHT22;4480;52.370;9.748;2023-12-04T02:30:43;-0.20;99.90
8888;DHT22;4480;52.370;9.748;2023-12-04T02:33:12;-0.20;99.90
8888;DHT22;4480;52.370;9.748;2023-12-04T02:35:40;-0.20;99.90
8888;DHT22;4480;52.370;9.748;2023-12-04T02:38:08;-0.20;99.90
8888;DHT22;4480;52.370;9.748;2023-12-04T02:40:36;-0.20;99.90
8888;DHT22;4480;52.370;9.748;2023-12-04T02:43:04;-0.20;99.90
8888;DHT22;4480;52.370;9.748;2023-12-04T02:45:30;-0.20;99.90
8888;DHT22;4480;52.370;9.748;2023-12-04T02:47:57;-0.20;99.90
8888;DHT22;4480;52.370;9.748;2023-12-04T02:50:24;-0.20;99.90
8888;DHT22;4480;52.370;9.748;2023-12-04T02:52:51;-0.20;99.90
8888;DHT22;4480;52.370;9.748;2023-12-04T02:55:17;-0.20;99.90
8888;DHT22;4480;52.370;9.748;2023-12-04T02:57:44;-0.20;99.90
8888;DHT22;4480;52.370;9.748;2023-12-04T03:00:13;-0.20;99.90
8888;DHT22;4480;52.370;9.748;2023-12-04T03:02:40;-0.20;99.90
8888;DHT22;4480;52.370;9.748;2023-12-04T03:05:07;-0.10;99.90
8888;DHT22;4480;52.370;9.748;2023-12-04T03:07:33;-0.10;99.90
8888;DHT22;4480;52.370;9.748;2023-12-04T03:10:00;-0.10;99.90
8888;DHT22;4480;52.370;9.748;2023-12-04T03:12:27;0.00;99.90
8888;DHT22;4480;52.370;9.748;2023-12-04T03:14:54;0.00;99.90
8888;DHT22;4480;52.370;9.748;2023-12-04T03:17:22;0.00;99.90
8888;DHT22;4480;52.370;9.748;2023-12-04T03:19:49;0.00;99.90
8888;DHT22;4480;52.370;9.748;2023-12-04T03:22:17;0.00;99.90
8888;DHT22;4480;52.370;9.748;2023-12-04T03:24:44;0.10;99.90
8888;DHT22;4480;52.370;9.748;2023-12-04T03:27:11;0.10;99.90
8888;DHT22;4480;52.370;9.748;2023-12-04T03:29:37;0.10;99.90
8888;DHT22;4480;52.370;9.748;2023-12-04T03:32:05;0.20;99.90
8888;DHT22;4480;52.370;9.748;2023-12-04T03:34:33;0.20;99.90
8888;DHT22;4480;52.370;9.748;2023-12-04T03:36:59;0.20;99.90
8888;DHT22;4480;52.370;9.748;2023-12-04T03:39:26;0.20;99.90
8888;DHT22;4480;52.370;9.748;2023-12-04T03:41:53;0.20;99.90
8888;DHT22;4480;52.370;9.748;2023-12-04T03:44:20;0.20;99.90
8888;DHT22;4480;52.370;9.748;2023-12-04T03:46:47;0.20;99.90
8888;DHT22;4480;52.370;9.748;2023-12-04T03:49:13;0.20;99.90
8888;DHT22;4480;52.370;9.748;2023-12-04T03:51:41;0.20;99.90
8888;DHT22;4480;52.370;9.748;2023-12-04T03:54:08;0.20;99.90
8888;DHT22;4480;52.370;9.748;2023-12-04T03:56:35;0.20;99.90
8888;DHT22;4480;52.370;9.748;2023-12-04T03:59:02;0.20;99.90
8888;DHT22;4480;52.370;9.748;2023-12-04T04:01:29;0.30;99.90
8888;DHT22;4480;52.370;9.748;2023-12-04T04:03:56;0.30;99.90
8888;DHT22;4480;52.370;9.748;2023-12-04T04:06:22;0.30;99.90
8888;DHT22;4480;52.370;9.748;2023-12-04T04:08:50;0.30;99.90
8888;DHT22;4480;52.370;9.748;2023-12-04T04:12:41;0.20;99.90
8888;DHT22;4480;52.370;9.748;2023-12-04T04:15:09;0.20;99.90
8888;DHT22;4480;52.370;9.748;2023-12-04T04:17:35;0.20;99.90
8888;DHT22;4480;52.370;9.748;2023-12-04T04:20:03;0.20;99.90
8888;DHT22;4480;52.370;9.748;2023-12-04T04:22:29;0.20;99.90
8888;DHT22;4480;52.370;9.748;2023-12-04T04:24:59;0.10;99.90
8888;DHT22;4480;52.370;9.748;2023-12-04T04:27:26;0.10;99.90
8888;DHT22;4480;52.370;9.748;2023-12-04T04:29:55;0.10;99.90
8888;DHT22;4480;52.370;9.748;2023-12-04T04:32:21;0.10;99.90
8888;DHT22;4480;52.370;9.748;2023-12-04T04:34:48;0.10;99.90
8888;DHT22;4480;52.370;9.748;2023-12-04T04:37:15;0.10;99.90
8888;DHT22;4480;52.370;9.748;2023-12-04T04:39:42;0.10;99.90
8888;DHT22;4480;52.370;9.748;2023-12-04T04:42:09;0.20;99.90
8888;DHT22;4480;52.370;9.748;2023-12-04T04:44:36;0.20;99.90
8888;DHT22;4480;52.370;9.748;2023-12-04T04:47:04;0.20;99.90
8888;DHT22;4480;52.370;9.748;2023-12-04T04:49:31;0.20;99.90
8888;DHT22;4480;52.370;9.748;2023-12-04T04:51:58;0.20;99.90
8888;DHT22;4480;52.370;9.748;2023-12-04T04:54:24;0.30;99.90
8888;DHT22;4480;52.370;9.748;2023-12-04T04:56:51;0.30;99.90
8888;DHT22;4480;52.370;9.748;2023-12-04T04:59:18;0.30;99.90
8888;DHT22;4480;52.370;9.748;2023-12-04T05:01:45;0.40;99.90
8888;DHT22;4480;52.370;9.748;2023-12-04T05:04:13;0.40;99.90
8888;DHT22;4480;52.370;9.748;2023-12-04T05:06:40;0.40;99.90
8888;DHT22;4480;52.370;9.748;2023-12-04T05:09:06;0.40;99.90
8888;DHT22;4480;52.370;9.748;2023-12-04T05:11:33;0.40;99.90
8888;DHT22;4480;52.370;9.748;2023-12-04T05:14:00;0.40;99.90
8888;DHT22;4480;52.370;9.748;2023-12-04T05:16:27;0.40;99.90
8888;DHT22;4480;52.370;9.748;2023-12-04T05:18:54;0.40;99.90
8888;DHT22;4480;52.370;9.748;2023-12-04T05:21:22;0.40;99.90
8888;DHT22;4480;52.370;9.748;2023-12-04T05:23:48;0.40;99.90
8888;DHT22;4480;52.370;9.748;2023-12-04T05:26:15;0.40;99.90
8888;DHT22;4480;52.370;9.748;2023-12-04T05:28:42;0.40;99.90
8888;DHT22;4480;52.370;9.748;2023-12-04T05:31:09;0.40;99.90
8888;DHT22;4480;52.370;9.748;2023-12-04T05:33:35;0.50;99.90
8888;DHT22;4480;52.370;9.748;2023-12-04T05:36:03;0.50;99.90
8888;DHT22;4480;52.370;9.748;2023-12-04T05:38:31;0.50;99.90
8888;DHT22;4480;52.370;9.748;2023-12-04T05:40:59;0.40;99.90
8888;DHT22;4480;52.370;9.748;2023-12-04T05:43:25;0.40;99.90
8888;DHT22;4480;52.370;9.748;2023-12-04T05:45:52;0.50;99.90
8888;DHT22;4480;52.370;9.748;2023-12-04T05:48:19;0.50;99.90
8888;DHT22;4480;52.370;9.748;2023-12-04T05:50:46;0.50;99.90
8888;DHT22;4480;52.370;9.748;2023-12-04T05:53:12;0.50;99.90
8888;DHT22;4480;52.370;9.748;2023-12-04T05:55:40;0.50;99.90
8888;DHT22;4480;52.370;9.748;2023-12-04T05:58:07;0.50;99.90
8888;DHT22;4480;52.370;9.748;2023-12-04T06:00:34;0.60;99.90
8888;DHT22;4480;52.370;9.748;2023-12-04T06:03:01;0.60;99.90
8888;DHT22;4480;52.370;9.748;2023-12-04T06:05:28;0.60;99.90
8888;DHT22;4480;52.370;9.748;2023-12-04T06:07:54;0.70;99.90
8888;DHT22;4480;52.370;9.748;2023-12-04T06:10:23;0.60;99.90
8888;DHT22;4480;52.370;9.748;2023-12-04T06:12:51;0.70;99.90
8888;DHT22;4480;52.370;9.748;2023-12-04T06:15:18;0.70;99.90
8888;DHT22;4480;52.370;9.748;2023-12-04T06:17:45;0.70;99.90
8888;DHT22;4480;52.370;9.748;2023-12-04T06:20:12;0.70;99.90
8888;DHT22;4480;52.370;9.748;2023-12-04T06:22:39;0.70;99.90
8888;DHT22;4480;52.370;9.748;2023-12-04T06:25:07;0.70;99.90
8888;DHT22;4480;52.370;9.748;2023-12-04T06:27:34;0.80;99.90
8888;DHT22;4480;52.370;9.748;2023-12-04T06:30:04;0.80;99.90
8888;DHT22;4480;52.370;9.748;2023-12-04T06:32:31;0.80;99.90
8888;DHT22;4480;52.370;9.748;2023-12-04T06:34:58;0.80;99.90
8888;DHT22;4480;52.370;9.748;2023-12-04T06:37:26;0.80;99.90
8888;DHT22;4480;52.370;9.748;2023-12-04T06:39:53;0.80;99.90
8888;DHT22;4480;52.370;9.748;2023-12-04T06:42:21;0.80;99.90
8888;DHT22;4480;52.370;9.748;2023-12-04T06:44:48;0.80;99.90
8888;DHT22;4480;52.370;9.748;2023-12-04T06:47:19;0.80;99.90
8888;DHT22;4480;52.370;9.748;2023-12-04T06:49:48;0.80;99.90
8888;DHT22;4480;52.370;9.748;2023-12-04T06:52:15;0.80;99.90
8888;DHT22;4480;52.370;9.748;2023-12-04T06:54:42;0.90;99.90
8888;DHT22;4480;52.370;9.748;2023-12-04T06:57:09;0.90;99.90
8888;DHT22;4480;52.370;9.748;2023-12-04T06:59:35;0.90;99.90
8888;DHT22;4480;52.370;9.748;2023-12-04T07:02:02;0.90;99.90
8888;DHT22;4480;52.370;9.748;2023-12-04T07:04:32;0.90;99.90
8888;DHT22;4480;52.370;9.748;2023-12-04T07:06:59;0.90;99.90
8888;DHT22;4480;52.370;9.748;2023-12-04T07:09:30;1.00;99.90
8888;DHT22;4480;52.370;9.748;2023-12-04T07:11:57;0.90;99.90
8888;DHT22;4480;52.370;9.748;2023-12-04T07:14:24;0.90;99.90
8888;DHT22;4480;52.370;9.748;2023-12-04T07:16:51;0.90;99.90
8888;DHT22;4480;52.370;9.748;2023-12-04T07:19:18;0.90;99.90
8888;DHT22;4480;52.370;9.748;2023-12-04T07:21:47;0.90;99.90
8888;DHT22;4480;52.370;9.748;2023-12-04T07:24:14;0.80;99.90
8888;DHT22;4480;52.370;9.748;2023-12-04T07:26:41;0.80;99.90
8888;DHT22;4480;52.370;9.748;2023-12-04T07:29:08;0.80;99.90
8888;DHT22;4480;52.370;9.748;2023-12-04T07:31:36;0.80;99.90
8888;DHT22;4480;52.370;9.748;2023-12-04T07:34:03;0.80;99.90
8888;DHT22;4480;52.370;9.748;2023-12-04T07:36:29;0.80;99.90
8888;DHT22;4480;52.370;9.748;2023-12-04T07:38:58;0.80;99.90
8888;DHT22;4480;52.370;9.748;2023-12-04T07:41:24;0.80;99.90
8888;DHT22;4480;52.370;9.748;2023-12-04T07:43:51;0.90;99.90
8888;DHT22;4480;52.370;9.748;2023-12-04T07:46:20;0.80;99.90
8888;DHT22;4480;52.370;9.748;2023-12-04T07:48:46;0.90;99.90
8888;DHT22;4480;52.370;9.748;2023-12-04T07:51:13;0.90;99.90
8888;DHT22;4480;52.370;9.748;2023-12-04T07:53:40;0.90;99.90
8888;DHT22;4480;52.370;9.748;2023-12-04T07:56:09;1.00;99.90
8888;DHT22;4480;52.370;9.748;2023-12-04T07:58:38;1.00;99.90
8888;DHT22;4480;52.370;9.748;2023-12-04T08:01:05;1.00;99.90
8888;DHT22;4480;52.370;9.748;2023-12-04T08:03:32;1.00;99.90
8888;DHT22;4480;52.370;9.748;2023-12-04T08:05:59;1.00;99.90
8888;DHT22;4480;52.370;9.748;2023-12-04T08:08:25;1.00;99.90
8888;DHT22;4480;52.370;9.748;2023-12-04T08:10:52;1.00;99.90
8888;DHT22;4480;52.370;9.748;2023-12-04T08:13:21;1.00;99.90
8888;DHT22;4480;52.370;9.748;2023-12-04T08:15:47;1.00;99.90
8888;DHT22;4480;52.370;9.748;2023-12-04T08:18:14;1.00;99.90
8888;DHT22;4480;52.370;9.748;2023-12-04T08:20:41;1.00;99.90
8888;DHT22;4480;52.370;9.748;2023-12-04T08:23:08;1.00;99.90
8888;DHT22;4480;52.370;9.748;2023-12-04T08:25:35;1.00;99.90
8888;DHT22;4480;52.370;9.748;2023-12-04T08:28:04;0.90;99.90
8888;DHT22;4480;52.370;9.748;2023-12-04T08:30:32;0.90;99.90
8888;DHT22;4480;52.370;9.748;2023-12-04T08:32:59;0.90;99.90
8888;DHT22;4480;52.370;9.748;2023-12-04T08:35:26;0.90;99.90
8888;DHT22;4480;52.370;9.748;2023-12-04T08:37:53;0.90;99.90
8888;DHT22;4480;52.370;9.748;2023-12-04T08:40:19;0.90;99.90
8888;DHT22;4480;52.370;9.748;2023-12-04T08:42:46;0.90;99.90
8888;DHT22;4480;52.370;9.748;2023-12-04T08:45:13;0.90;99.90
8888;DHT22;4480;52.370;9.748;2023-12-04T08:47:41;0.90;99.90
8888;DHT22;4480;52.370;9.748;2023-12-04T08:50:08;0.90;99.90
8888;DHT22;4480;52.370;9.748;2023-12-04T08:52:35;0.90;99.90
8888;DHT22;4480;52.370;9.748;2023-12-04T08:55:02;1.00;99.90
8888;DHT22;4480;52.370;9.748;2023-12-04T08:57:29;1.00;99.90
8888;DHT22;4480;52.370;9.748;2023-12-04T08:59:56;1.10;99.90
8888;DHT22;4480;52.370;9.748;2023-12-04T09:02:24;1.10;99.90
8888;DHT22;4480;52.370;9.748;2023-12-04T09:04:52;1.20;99.90
8888;DHT22;4480;52.370;9.748;2023-12-04T09:07:19;1.30;99.90
8888;DHT22;4480;52.370;9.748;2023-12-04T09:09:45;1.30;99.90
8888;DHT22;4480;52.370;9.748;2023-12-04T09:12:12;1.40;99.90
8888;DHT22;4480;52.370;9.748;2023-12-04T09:14:40;1.40;99.90
8888;DHT22;4480;52.370;9.748;2023-12-04T09:17:06;1.50;99.90
8888;DHT22;4480;52.370;9.748;2023-12-04T09:19:33;1.60;99.90
8888;DHT22;4480;52.370;9.748;2023-12-04T09:22:01;1.70;99.90
8888;DHT22;4480;52.370;9.748;2023-12-04T09:24:28;1.70;99.90
8888;DHT22;4480;52.370;9.748;2023-12-04T09:26:56;1.80;99.90
8888;DHT22;4480;52.370;9.748;2023-12-04T09:29:23;1.90;99.90
8888;DHT22;4480;52.370;9.748;2023-12-04T09:31:51;2.00;99.90
8888;DHT22;4480;52.370;9.748;2023-12-04T09:34:18;2.00;99.90
8888;DHT22;4480;52.370;9.748;2023-12-04T09:36:45;2.10;99.90
8888;DHT22;4480;52.370;9.748;2023-12-04T09:39:15;2.10;99.90
8888;DHT22;4480;52.370;9.748;2023-12-04T09:41:43;2.10;99.90
8888;DHT22;4480;52.370;9.748;2023-12-04T09:44:10;2.10;99.90
8888;DHT22;4480;52.370;9.748;2023-12-04T09:46:38;2.10;99.90
8888;DHT22;4480;52.370;9.748;2023-12-04T09:49:05;2.10;99.90
8888;DHT22;4480;52.370;9.748;2023-12-04T09:51:33;2.10;99.90
8888;DHT22;4480;52.370;9.748;2023-12-04T09:54:02;2.20;99.90
8888;DHT22;4480;52.370;9.748;2023-12-04T09:56:32;2.10;99.90
8888;DHT22;4480;52.370;9.748;2023-12-04T09:59:00;2.10;99.90
8888;DHT22;4480;52.370;9.748;2023-12-04T10:01:28;2.00;99.90
8888;DHT22;4480;52.370;9.748;2023-12-04T10:03:56;2.00;99.90
8888;DHT22;4480;52.370;9.748;2023-12-04T10:06:26;2.10;99.90
8888;DHT22;4480;52.370;9.748;2023-12-04T10:08:55;2.10;99.90
8888;DHT22;4480;52.370;9.748;2023-12-04T10:11:23;2.10;99.90
8888;DHT22;4480;52.370;9.748;2023-12-04T10:13:51;2.20;99.90
8888;DHT22;4480;52.370;9.748;2023-12-04T10:16:32;2.20;99.90
8888;DHT22;4480;52.370;9.748;2023-12-04T10:19:14;2.30;99.90
8888;DHT22;4480;52.370;9.748;2023-12-04T10:21:41;2.30;99.90
8888;DHT22;4480;52.370;9.748;2023-12-04T10:24:09;2.40;99.90
8888;DHT22;4480;52.370;9.748;2023-12-04T10:26:36;2.40;99.90
8888;DHT22;4480;52.370;9.748;2023-12-04T10:29:04;2.40;99.90
8888;DHT22;4480;52.370;9.748;2023-12-04T10:31:32;2.40;99.90
8888;DHT22;4480;52.370;9.748;2023-12-04T10:34:00;2.50;99.90
8888;DHT22;4480;52.370;9.748;2023-12-04T10:36:26;2.50;99.90
8888;DHT22;4480;52.370;9.748;2023-12-04T10:38:58;2.50;99.90
8888;DHT22;4480;52.370;9.748;2023-12-04T10:41:25;2.50;99.90
8888;DHT22;4480;52.370;9.748;2023-12-04T10:43:52;2.60;99.90
8888;DHT22;4480;52.370;9.748;2023-12-04T10:46:21;2.60;99.90
8888;DHT22;4480;52.370;9.748;2023-12-04T10:48:48;2.60;99.90
8888;DHT22;4480;52.370;9.748;2023-12-04T10:51:15;2.70;99.90
8888;DHT22;4480;52.370;9.748;2023-12-04T10:53:43;2.70;99.90
8888;DHT22;4480;52.370;9.748;2023-12-04T10:56:17;2.70;99.90
8888;DHT22;4480;52.370;9.748;2023-12-04T10:58:50;2.60;99.90
8888;DHT22;4480;52.370;9.748;2023-12-04T11:01:18;2.60;99.90
8888;DHT22;4480;52.370;9.748;2023-12-04T11:03:48;2.60;99.90
8888;DHT22;4480;52.370;9.748;2023-12-04T11:06:17;2.60;99.90
8888;DHT22;4480;52.370;9.748;2023-12-04T11:08:47;2.60;99.90
8888;DHT22;4480;52.370;9.748;2023-12-04T11:11:18;2.60;99.90
8888;DHT22;4480;52.370;9.748;2023-12-04T11:13:49;2.50;99.90
8888;DHT22;4480;52.370;9.748;2023-12-04T11:16:20;2.50;99.90
8888;DHT22;4480;52.370;9.748;2023-12-04T11:18:55;2.50;99.90
8888;DHT22;4480;52.370;9.748;2023-12-04T11:21:23;2.60;99.90
8888;DHT22;4480;52.370;9.748;2023-12-04T11:23:51;2.50;99.90
8888;DHT22;4480;52.370;9.748;2023-12-04T11:26:18;2.50;99.90
8888;DHT22;4480;52.370;9.748;2023-12-04T11:28:45;2.50;99.90
8888;DHT22;4480;52.370;9.748;2023-12-04T11:31:13;2.50;99.90
8888;DHT22;4480;52.370;9.748;2023-12-04T11:33:41;2.50;99.90
8888;DHT22;4480;52.370;9.748;2023-12-04T11:36:11;2.60;99.90
8888;DHT22;4480;52.370;9.748;2023-12-04T11:38:43;2.60;99.90
8888;DHT22;4480;52.370;9.748;2023-12-04T11:41:15;2.60;99.90
8888;DHT22;4480;52.370;9.748;2023-12-04T11:43:42;2.60;99.90
8888;DHT22;4480;52.370;9.748;2023-12-04T11:46:10;2.50;99.90
8888;DHT22;4480;52.370;9.748;2023-12-04T11:48:37;2.50;99.90
8888;DHT22;4480;52.370;9.748;2023-12-04T11:51:06;2.50;99.90
8888;DHT22;4480;52.370;9.748;2023-12-04T11:53:39;2.40;99.70
8888;DHT22;4480;52.370;9.748;2023-12-04T11:56:10;2.40;99.70
8888;DHT22;4480;52.370;9.748;2023-12-04T11:58:42;2.40;99.70
8888;DHT22;4480;52.370;9.748;2023-12-04T12:01:09;2.50;99.60
8888;DHT22;4480;52.370;9.748;2023-12-04T12:03:36;2.40;99.60
8888;DHT22;4480;52.370;9.748;2023-12-04T12:06:03;2.40;99.50
8888;DHT22;4480;52.370;9.748;2023-12-04T12:08:30;2.40;99.40
8888;DHT22;4480;52.370;9.748;2023-12-04T12:10:58;2.40;99.40
8888;DHT22;4480;52.370;9.748;2023-12-04T12:13:26;2.40;99.40
8888;DHT22;4480;52.370;9.748;2023-12-04T12:15:52;2.40;99.40
8888;DHT22;4480;52.370;9.748;2023-12-04T12:18:21;2.40;99.30
8888;DHT22;4480;52.370;9.748;2023-12-04T12:20:48;2.40;99.30
8888;DHT22;4480;52.370;9.748;2023-12-04T12:23:15;2.40;99.30
8888;DHT22;4480;52.370;9.748;2023-12-04T12:25:42;2.40;99.20
8888;DHT22;4480;52.370;9.748;2023-12-04T12:28:11;2.40;99.00
8888;DHT22;4480;52.370;9.748;2023-12-04T12:30:38;2.40;98.80
8888;DHT22;4480;52.370;9.748;2023-12-04T12:33:05;2.40;98.80
8888;DHT22;4480;52.370;9.748;2023-12-04T12:35:32;2.40;98.70
8888;DHT22;4480;52.370;9.748;2023-12-04T12:37:59;2.40;98.60
8888;DHT22;4480;52.370;9.748;2023-12-04T12:40:28;2.40;98.60
8888;DHT22;4480;52.370;9.748;2023-12-04T12:43:04;2.40;98.60
8888;DHT22;4480;52.370;9.748;2023-12-04T12:45:39;2.40;98.50
8888;DHT22;4480;52.370;9.748;2023-12-04T12:48:10;2.40;98.50
8888;DHT22;4480;52.370;9.748;2023-12-04T12:50:37;2.40;98.40
8888;DHT22;4480;52.370;9.748;2023-12-04T12:53:04;2.40;98.30
8888;DHT22;4480;52.370;9.748;2023-12-04T12:55:31;2.40;98.30
8888;DHT22;4480;52.370;9.748;2023-12-04T12:57:57;2.40;98.30
8888;DHT22;4480;52.370;9.748;2023-12-04T13:00:24;2.40;98.40
8888;DHT22;4480;52.370;9.748;2023-12-04T13:02:54;2.40;98.50
8888;DHT22;4480;52.370;9.748;2023-12-04T13:05:21;2.40;98.50
8888;DHT22;4480;52.370;9.748;2023-12-04T13:07:48;2.40;98.40
8888;DHT22;4480;52.370;9.748;2023-12-04T13:10:15;2.40;98.30
8888;DHT22;4480;52.370;9.748;2023-12-04T13:12:42;2.40;98.30
8888;DHT22;4480;52.370;9.748;2023-12-04T13:15:09;2.40;98.30
8888;DHT22;4480;52.370;9.748;2023-12-04T13:17:37;2.40;98.10
8888;DHT22;4480;52.370;9.748;2023-12-04T13:20:06;2.40;98.10
8888;DHT22;4480;52.370;9.748;2023-12-04T13:22:37;2.40;98.00
8888;DHT22;4480;52.370;9.748;2023-12-04T13:25:05;2.40;97.80
8888;DHT22;4480;52.370;9.748;2023-12-04T13:27:32;2.30;97.70
8888;DHT22;4480;52.370;9.748;2023-12-04T13:29:59;2.40;97.70
8888;DHT22;4480;52.370;9.748;2023-12-04T13:32:26;2.30;97.60
8888;DHT22;4480;52.370;9.748;2023-12-04T13:34:52;2.40;97.60
8888;DHT22;4480;52.370;9.748;2023-12-04T13:37:22;2.40;97.50
8888;DHT22;4480;52.370;9.748;2023-12-04T13:39:49;2.30;97.40
8888;DHT22;4480;52.370;9.748;2023-12-04T13:42:23;2.30;97.40
8888;DHT22;4480;52.370;9.748;2023-12-04T13:45:07;2.30;97.50
8888;DHT22;4480;52.370;9.748;2023-12-04T13:47:35;2.40;97.60
8888;DHT22;4480;52.370;9.748;2023-12-04T13:50:02;2.30;97.50
8888;DHT22;4480;52.370;9.748;2023-12-04T13:52:30;2.30;97.50
8888;DHT22;4480;52.370;9.748;2023-12-04T13:54:59;2.30;97.50
8888;DHT22;4480;52.370;9.748;2023-12-04T13:57:26;2.30;97.50
8888;DHT22;4480;52.370;9.748;2023-12-04T13:59:58;2.30;97.60
8888;DHT22;4480;52.370;9.748;2023-12-04T14:02:25;2.20;97.20
8888;DHT22;4480;52.370;9.748;2023-12-04T14:04:52;2.20;97.20
8888;DHT22;4480;52.370;9.748;2023-12-04T14:07:19;2.20;97.30
8888;DHT22;4480;52.370;9.748;2023-12-04T14:09:47;2.20;97.50
8888;DHT22;4480;52.370;9.748;2023-12-04T14:12:14;2.20;97.50
8888;DHT22;4480;52.370;9.748;2023-12-04T14:14:41;2.20;97.40
8888;DHT22;4480;52.370;9.748;2023-12-04T14:17:08;2.30;97.40
8888;DHT22;4480;52.370;9.748;2023-12-04T14:19:37;2.30;97.40
8888;DHT22;4480;52.370;9.748;2023-12-04T14:22:04;2.30;97.30
8888;DHT22;4480;52.370;9.748;2023-12-04T14:24:31;2.30;97.30
8888;DHT22;4480;52.370;9.748;2023-12-04T14:27:02;2.30;97.10
8888;DHT22;4480;52.370;9.748;2023-12-04T14:29:30;2.20;97.00
8888;DHT22;4480;52.370;9.748;2023-12-04T14:31:57;2.20;96.90
8888;DHT22;4480;52.370;9.748;2023-12-04T14:34:24;2.20;96.90
8888;DHT22;4480;52.370;9.748;2023-12-04T14:36:50;2.20;96.70
8888;DHT22;4480;52.370;9.748;2023-12-04T14:39:17;2.20;96.70
8888;DHT22;4480;52.370;9.748;2023-12-04T14:41:44;2.20;96.70
8888;DHT22;4480;52.370;9.748;2023-12-04T14:44:12;2.20;96.60
8888;DHT22;4480;52.370;9.748;2023-12-04T14:46:39;2.20;96.50
8888;DHT22;4480;52.370;9.748;2023-12-04T14:49:06;2.20;96.50
8888;DHT22;4480;52.370;9.748;2023-12-04T14:51:33;2.20;96.60
8888;DHT22;4480;52.370;9.748;2023-12-04T14:54:00;2.20;96.50
8888;DHT22;4480;52.370;9.748;2023-12-04T14:56:41;2.20;96.30
8888;DHT22;4480;52.370;9.748;2023-12-04T14:59:27;2.10;96.40
8888;DHT22;4480;52.370;9.748;2023-12-04T15:02:28;2.10;96.20
8888;DHT22;4480;52.370;9.748;2023-12-04T15:05:11;2.10;96.10
8888;DHT22;4480;52.370;9.748;2023-12-04T15:08:10;2.10;96.20
8888;DHT22;4480;52.370;9.748;2023-12-04T15:10:51;2.10;96.10
8888;DHT22;4480;52.370;9.748;2023-12-04T15:13:50;2.10;96.10
8888;DHT22;4480;52.370;9.748;2023-12-04T15:16:23;2.10;96.20
8888;DHT22;4480;52.370;9.748;2023-12-04T15:18:59;2.10;96.20
8888;DHT22;4480;52.370;9.748;2023-12-04T15:21:43;2.10;96.30
8888;DHT22;4480;52.370;9.748;2023-12-04T15:24:10;2.10;96.20
8888;DHT22;4480;52.370;9.748;2023-12-04T15:26:36;2.10;96.10
8888;DHT22;4480;52.370;9.748;2023-12-04T15:29:03;2.10;96.20
8888;DHT22;4480;52.370;9.748;2023-12-04T15:31:32;2.10;96.20
8888;DHT22;4480;52.370;9.748;2023-12-04T15:33:59;2.10;96.20
8888;DHT22;4480;52.370;9.748;2023-12-04T15:36:25;2.10;96.10
8888;DHT22;4480;52.370;9.748;2023-12-04T15:38:51;2.00;96.20
8888;DHT22;4480;52.370;9.748;2023-12-04T15:41:17;2.00;96.10
8888;DHT22;4480;52.370;9.748;2023-12-04T15:43:46;2.00;96.10
8888;DHT22;4480;52.370;9.748;2023-12-04T15:46:14;2.00;96.10
8888;DHT22;4480;52.370;9.748;2023-12-04T15:48:42;1.90;95.90
8888;DHT22;4480;52.370;9.748;2023-12-04T15:51:08;1.90;96.00
8888;DHT22;4480;52.370;9.748;2023-12-04T15:53:36;1.90;96.30
8888;DHT22;4480;52.370;9.748;2023-12-04T15:56:04;1.90;96.70
8888;DHT22;4480;52.370;9.748;2023-12-04T15:58:30;1.80;97.10
8888;DHT22;4480;52.370;9.748;2023-12-04T16:00:58;1.80;97.70
8888;DHT22;4480;52.370;9.748;2023-12-04T16:03:24;1.70;98.30
8888;DHT22;4480;52.370;9.748;2023-12-04T16:05:52;1.70;98.80
8888;DHT22;4480;52.370;9.748;2023-12-04T16:08:19;1.60;99.30
8888;DHT22;4480;52.370;9.748;2023-12-04T16:10:45;1.50;99.80
8888;DHT22;4480;52.370;9.748;2023-12-04T16:13:12;1.50;99.90
8888;DHT22;4480;52.370;9.748;2023-12-04T16:15:41;1.50;99.90
8888;DHT22;4480;52.370;9.748;2023-12-04T16:18:11;1.40;99.90
8888;DHT22;4480;52.370;9.748;2023-12-04T16:20:38;1.40;99.90